sensor_id;sensor_type;location;lat;lon;timestamp;temperature;humidity
63976;DHT22;50167;47.958;21.780;2022-10-16T00:01:09;13.40;66.92
63976;DHT22;50167;47.958;21.780;2022-10-16T00:03:38;14.72;64.06
63976;DHT22;50167;47.958;21.780;2022-10-16T00:06:05;15.47;61.12
63976;DHT22;50167;47.958;21.780;2022-10-16T00:08:32;15.92;58.46
63976;DHT22;50167;47.958;21.780;2022-10-16T00:11:06;15.42;56.28
63976;DHT22;50167;47.958;21.780;2022-10-16T00:13:33;14.23;58.23
63976;DHT22;50167;47.958;21.780;2022-10-16T00:16:01;13.40;60.47
63976;DHT22;50167;47.958;21.780;2022-10-16T00:18:29;12.75;62.45
63976;DHT22;50167;47.958;21.780;2022-10-16T00:20:56;13.26;67.05
63976;DHT22;50167;47.958;21.780;2022-10-16T00:23:23;14.48;64.72
63976;DHT22;50167;47.958;21.780;2022-10-16T00:26:04;15.25;62.04
63976;DHT22;50167;47.958;21.780;2022-10-16T00:28:27;15.70;60.01
63976;DHT22;50167;47.958;21.780;2022-10-16T00:30:54;16.02;58.54
63976;DHT22;50167;47.958;21.780;2022-10-16T00:33:21;15.53;56.54
63976;DHT22;50167;47.958;21.780;2022-10-16T00:35:48;14.43;58.18
63976;DHT22;50167;47.958;21.780;2022-10-16T00:38:14;13.55;59.94
63976;DHT22;50167;47.958;21.780;2022-10-16T00:40:40;12.87;61.75
63976;DHT22;50167;47.958;21.780;2022-10-16T00:43:36;13.30;66.06
63976;DHT22;50167;47.958;21.780;2022-10-16T00:48:39;15.23;61.43
63976;DHT22;50167;47.958;21.780;2022-10-16T00:51:07;15.70;59.40
63976;DHT22;50167;47.958;21.780;2022-10-16T00:53:34;15.39;57.30
63976;DHT22;50167;47.958;21.780;2022-10-16T00:56:01;14.33;58.63
63976;DHT22;50167;47.958;21.780;2022-10-16T00:58:27;13.43;60.85
63976;DHT22;50167;47.958;21.780;2022-10-16T01:00:53;12.75;62.57
63976;DHT22;50167;47.958;21.780;2022-10-16T01:03:36;13.20;67.17
63976;DHT22;50167;47.958;21.780;2022-10-16T01:06:36;14.60;64.01
63976;DHT22;50167;47.958;21.780;2022-10-16T01:14:48;15.00;56.71
63976;DHT22;50167;47.958;21.780;2022-10-16T01:17:29;13.78;58.63
63976;DHT22;50167;47.958;21.780;2022-10-16T01:20:29;12.91;60.69
63976;DHT22;50167;47.958;21.780;2022-10-16T01:23:08;12.13;62.81
63976;DHT22;50167;47.958;21.780;2022-10-16T01:28:13;14.10;64.96
63976;DHT22;50167;47.958;21.780;2022-10-16T01:30:42;14.85;61.87
63976;DHT22;50167;47.958;21.780;2022-10-16T01:33:23;15.33;59.56
63976;DHT22;50167;47.958;21.780;2022-10-16T01:35:52;14.94;56.53
63976;DHT22;50167;47.958;21.780;2022-10-16T01:38:32;13.81;57.58
63976;DHT22;50167;47.958;21.780;2022-10-16T01:41:05;12.80;59.48
63976;DHT22;50167;47.958;21.780;2022-10-16T01:43:35;12.13;61.77
63976;DHT22;50167;47.958;21.780;2022-10-16T01:46:01;12.61;66.64
63976;DHT22;50167;47.958;21.780;2022-10-16T01:48:29;13.95;65.07
63976;DHT22;50167;47.958;21.780;2022-10-16T01:51:05;14.88;61.31
63976;DHT22;50167;47.958;21.780;2022-10-16T01:53:32;15.42;59.62
63976;DHT22;50167;47.958;21.780;2022-10-16T01:56:00;14.98;57.01
63976;DHT22;50167;47.958;21.780;2022-10-16T01:58:28;13.77;58.19
63976;DHT22;50167;47.958;21.780;2022-10-16T02:00:58;12.75;60.01
63976;DHT22;50167;47.958;21.780;2022-10-16T02:03:24;12.01;62.87
63976;DHT22;50167;47.958;21.780;2022-10-16T02:05:55;12.44;67.18
63976;DHT22;50167;47.958;21.780;2022-10-16T02:08:25;13.65;64.84
63976;DHT22;50167;47.958;21.780;2022-10-16T02:10:56;14.33;61.92
63976;DHT22;50167;47.958;21.780;2022-10-16T02:13:48;14.74;59.73
63976;DHT22;50167;47.958;21.780;2022-10-16T02:15:54;14.36;57.11
63976;DHT22;50167;47.958;21.780;2022-10-16T02:18:20;13.31;58.34
63976;DHT22;50167;47.958;21.780;2022-10-16T02:21:05;12.48;60.07
63976;DHT22;50167;47.958;21.780;2022-10-16T02:26:40;12.33;66.23
63976;DHT22;50167;47.958;21.780;2022-10-16T02:29:09;13.47;65.19
63976;DHT22;50167;47.958;21.780;2022-10-16T02:31:37;14.15;64.12
63976;DHT22;50167;47.958;21.780;2022-10-16T02:34:05;14.56;60.74
63976;DHT22;50167;47.958;21.780;2022-10-16T02:36:33;14.96;58.90
63976;DHT22;50167;47.958;21.780;2022-10-16T02:39:00;14.54;56.18
63976;DHT22;50167;47.958;21.780;2022-10-16T02:41:27;13.47;57.76
63976;DHT22;50167;47.958;21.780;2022-10-16T02:43:53;12.58;59.78
63976;DHT22;50167;47.958;21.780;2022-10-16T02:46:21;11.90;61.37
63976;DHT22;50167;47.958;21.780;2022-10-16T02:48:47;11.35;62.62
63976;DHT22;50167;47.958;21.780;2022-10-16T02:51:13;11.97;67.21
63976;DHT22;50167;47.958;21.780;2022-10-16T02:53:39;13.24;64.44
63976;DHT22;50167;47.958;21.780;2022-10-16T02:56:05;13.95;61.72
63976;DHT22;50167;47.958;21.780;2022-10-16T02:58:31;14.43;59.34
63976;DHT22;50167;47.958;21.780;2022-10-16T03:00:58;14.06;56.77
63976;DHT22;50167;47.958;21.780;2022-10-16T03:03:23;13.00;57.89
63976;DHT22;50167;47.958;21.780;2022-10-16T03:05:49;12.15;59.86
63976;DHT22;50167;47.958;21.780;2022-10-16T03:08:15;11.44;61.54
63976;DHT22;50167;47.958;21.780;2022-10-16T03:10:41;11.92;66.37
63976;DHT22;50167;47.958;21.780;2022-10-16T03:13:07;13.22;64.57
63976;DHT22;50167;47.958;21.780;2022-10-16T03:15:33;14.02;61.37
63976;DHT22;50167;47.958;21.780;2022-10-16T03:18:00;14.43;58.93
63976;DHT22;50167;47.958;21.780;2022-10-16T03:20:26;14.03;56.59
63976;DHT22;50167;47.958;21.780;2022-10-16T03:22:52;12.91;58.17
63976;DHT22;50167;47.958;21.780;2022-10-16T03:25:18;12.00;60.17
63976;DHT22;50167;47.958;21.780;2022-10-16T03:27:44;11.31;62.06
63976;DHT22;50167;47.958;21.780;2022-10-16T03:30:11;11.75;67.32
63976;DHT22;50167;47.958;21.780;2022-10-16T03:32:37;13.03;64.86
63976;DHT22;50167;47.958;21.780;2022-10-16T03:35:04;13.89;62.15
63976;DHT22;50167;47.958;21.780;2022-10-16T03:37:30;14.48;60.79
63976;DHT22;50167;47.958;21.780;2022-10-16T03:39:56;14.95;58.90
63976;DHT22;50167;47.958;21.780;2022-10-16T03:42:22;14.51;55.93
63976;DHT22;50167;47.958;21.780;2022-10-16T03:44:50;13.34;57.55
63976;DHT22;50167;47.958;21.780;2022-10-16T03:47:16;12.43;59.93
63976;DHT22;50167;47.958;21.780;2022-10-16T03:49:44;11.70;61.63
63976;DHT22;50167;47.958;21.780;2022-10-16T03:52:10;12.09;66.38
63976;DHT22;50167;47.958;21.780;2022-10-16T03:54:36;13.47;64.86
63976;DHT22;50167;47.958;21.780;2022-10-16T03:57:02;14.34;61.88
63976;DHT22;50167;47.958;21.780;2022-10-16T03:59:28;14.78;59.86
63976;DHT22;50167;47.958;21.780;2022-10-16T04:01:54;14.50;56.62
63976;DHT22;50167;47.958;21.780;2022-10-16T04:04:20;13.40;58.01
63976;DHT22;50167;47.958;21.780;2022-10-16T04:06:46;12.44;60.24
63976;DHT22;50167;47.958;21.780;2022-10-16T04:09:12;11.69;62.27
63976;DHT22;50167;47.958;21.780;2022-10-16T04:11:38;12.12;67.35
63976;DHT22;50167;47.958;21.780;2022-10-16T04:14:04;13.33;66.19
63976;DHT22;50167;47.958;21.780;2022-10-16T04:16:30;14.24;62.52
63976;DHT22;50167;47.958;21.780;2022-10-16T04:18:56;14.84;59.96
63976;DHT22;50167;47.958;21.780;2022-10-16T04:21:23;15.23;58.03
63976;DHT22;50167;47.958;21.780;2022-10-16T04:23:49;14.68;55.25
63976;DHT22;50167;47.958;21.780;2022-10-16T04:26:15;13.43;56.99
63976;DHT22;50167;47.958;21.780;2022-10-16T04:28:41;12.43;59.21
63976;DHT22;50167;47.958;21.780;2022-10-16T04:31:07;11.70;60.96
63976;DHT22;50167;47.958;21.780;2022-10-16T04:33:33;11.13;62.71
63976;DHT22;50167;47.958;21.780;2022-10-16T04:36:01;11.70;67.64
63976;DHT22;50167;47.958;21.780;2022-10-16T04:38:28;12.98;65.91
63976;DHT22;50167;47.958;21.780;2022-10-16T04:40:54;13.72;63.26
63976;DHT22;50167;47.958;21.780;2022-10-16T04:43:21;14.27;60.77
63976;DHT22;50167;47.958;21.780;2022-10-16T04:45:47;14.85;58.74
63976;DHT22;50167;47.958;21.780;2022-10-16T04:48:15;14.47;55.53
63976;DHT22;50167;47.958;21.780;2022-10-16T04:50:42;13.24;56.63
63976;DHT22;50167;47.958;21.780;2022-10-16T04:53:08;12.20;59.02
63976;DHT22;50167;47.958;21.780;2022-10-16T04:55:34;11.35;61.14
63976;DHT22;50167;47.958;21.780;2022-10-16T04:58:00;10.68;63.63
63976;DHT22;50167;47.958;21.780;2022-10-16T05:00:26;11.17;67.99
63976;DHT22;50167;47.958;21.780;2022-10-16T05:02:53;12.45;67.06
63976;DHT22;50167;47.958;21.780;2022-10-16T05:05:19;13.24;63.94
63976;DHT22;50167;47.958;21.780;2022-10-16T05:07:48;13.74;61.14
63976;DHT22;50167;47.958;21.780;2022-10-16T05:10:15;14.09;60.04
63976;DHT22;50167;47.958;21.780;2022-10-16T05:12:41;14.31;59.24
63976;DHT22;50167;47.958;21.780;2022-10-16T05:15:09;13.85;56.59
63976;DHT22;50167;47.958;21.780;2022-10-16T05:17:35;12.74;58.11
63976;DHT22;50167;47.958;21.780;2022-10-16T05:20:02;11.88;60.14
63976;DHT22;50167;47.958;21.780;2022-10-16T05:22:29;11.21;61.57
63976;DHT22;50167;47.958;21.780;2022-10-16T05:24:55;10.72;63.19
63976;DHT22;50167;47.958;21.780;2022-10-16T05:27:21;11.34;67.58
63976;DHT22;50167;47.958;21.780;2022-10-16T05:29:48;12.65;65.36
63976;DHT22;50167;47.958;21.780;2022-10-16T05:32:16;13.48;61.65
63976;DHT22;50167;47.958;21.780;2022-10-16T05:34:44;13.92;59.61
63976;DHT22;50167;47.958;21.780;2022-10-16T05:37:11;13.61;57.16
63976;DHT22;50167;47.958;21.780;2022-10-16T05:39:38;12.58;58.17
63976;DHT22;50167;47.958;21.780;2022-10-16T05:42:05;11.72;60.63
63976;DHT22;50167;47.958;21.780;2022-10-16T05:44:31;11.15;62.60
63976;DHT22;50167;47.958;21.780;2022-10-16T05:46:57;11.78;67.63
63976;DHT22;50167;47.958;21.780;2022-10-16T05:49:24;13.27;65.23
63976;DHT22;50167;47.958;21.780;2022-10-16T05:51:50;14.15;61.60
63976;DHT22;50167;47.958;21.780;2022-10-16T05:54:16;14.64;59.68
63976;DHT22;50167;47.958;21.780;2022-10-16T05:56:42;14.41;56.89
63976;DHT22;50167;47.958;21.780;2022-10-16T05:59:08;13.34;58.18
63976;DHT22;50167;47.958;21.780;2022-10-16T06:01:34;12.48;60.78
63976;DHT22;50167;47.958;21.780;2022-10-16T06:04:01;11.89;63.33
63976;DHT22;50167;47.958;21.780;2022-10-16T06:06:28;12.59;67.91
63976;DHT22;50167;47.958;21.780;2022-10-16T06:08:57;14.08;65.55
63976;DHT22;50167;47.958;21.780;2022-10-16T06:11:29;15.05;61.97
63976;DHT22;50167;47.958;21.780;2022-10-16T06:14:00;15.65;59.86
63976;DHT22;50167;47.958;21.780;2022-10-16T06:16:31;16.15;58.42
63976;DHT22;50167;47.958;21.780;2022-10-16T06:18:57;15.74;56.35
63976;DHT22;50167;47.958;21.780;2022-10-16T06:21:26;14.75;58.45
63976;DHT22;50167;47.958;21.780;2022-10-16T06:23:54;13.95;60.72
63976;DHT22;50167;47.958;21.780;2022-10-16T06:26:23;13.43;63.21
63976;DHT22;50167;47.958;21.780;2022-10-16T06:28:50;14.17;67.08
63976;DHT22;50167;47.958;21.780;2022-10-16T06:31:17;15.63;64.19
63976;DHT22;50167;47.958;21.780;2022-10-16T06:33:44;16.46;60.72
63976;DHT22;50167;47.958;21.780;2022-10-16T06:36:14;17.04;58.85
63976;DHT22;50167;47.958;21.780;2022-10-16T06:38:41;16.72;56.35
63976;DHT22;50167;47.958;21.780;2022-10-16T06:41:12;15.81;57.99
63976;DHT22;50167;47.958;21.780;2022-10-16T06:43:38;15.07;59.80
63976;DHT22;50167;47.958;21.780;2022-10-16T06:46:07;14.58;61.35
63976;DHT22;50167;47.958;21.780;2022-10-16T06:48:35;14.23;62.80
63976;DHT22;50167;47.958;21.780;2022-10-16T06:51:06;15.03;66.34
63976;DHT22;50167;47.958;21.780;2022-10-16T06:53:34;16.47;65.65
63976;DHT22;50167;47.958;21.780;2022-10-16T06:56:20;17.26;60.09
63976;DHT22;50167;47.958;21.780;2022-10-16T06:58:43;17.94;57.98
63976;DHT22;50167;47.958;21.780;2022-10-16T07:01:10;17.69;55.70
63976;DHT22;50167;47.958;21.780;2022-10-16T07:03:39;16.83;57.19
63976;DHT22;50167;47.958;21.780;2022-10-16T07:06:08;16.18;58.98
63976;DHT22;50167;47.958;21.780;2022-10-16T07:08:37;15.74;60.22
63976;DHT22;50167;47.958;21.780;2022-10-16T07:11:08;15.42;61.89
63976;DHT22;50167;47.958;21.780;2022-10-16T07:13:39;15.13;62.59
63976;DHT22;50167;47.958;21.780;2022-10-16T07:16:13;16.07;65.44
63976;DHT22;50167;47.958;21.780;2022-10-16T07:18:40;17.60;61.64
63976;DHT22;50167;47.958;21.780;2022-10-16T07:21:19;18.49;57.81
63976;DHT22;50167;47.958;21.780;2022-10-16T07:23:43;18.23;55.87
63976;DHT22;50167;47.958;21.780;2022-10-16T07:26:10;17.46;56.96
63976;DHT22;50167;47.958;21.780;2022-10-16T07:28:37;16.87;58.19
63976;DHT22;50167;47.958;21.780;2022-10-16T07:31:10;16.43;59.52
63976;DHT22;50167;47.958;21.780;2022-10-16T07:33:38;16.11;60.85
63976;DHT22;50167;47.958;21.780;2022-10-16T07:36:05;15.84;61.19
63976;DHT22;50167;47.958;21.780;2022-10-16T07:38:31;15.60;62.68
63976;DHT22;50167;47.958;21.780;2022-10-16T07:41:04;16.43;64.39
63976;DHT22;50167;47.958;21.780;2022-10-16T07:43:31;18.04;60.59
63976;DHT22;50167;47.958;21.780;2022-10-16T07:45:58;19.05;56.46
63976;DHT22;50167;47.958;21.780;2022-10-16T07:48:28;18.95;54.95
63976;DHT22;50167;47.958;21.780;2022-10-16T07:51:01;18.22;56.55
63976;DHT22;50167;47.958;21.780;2022-10-16T07:53:28;17.69;57.84
63976;DHT22;50167;47.958;21.780;2022-10-16T07:55:59;17.32;58.33
63976;DHT22;50167;47.958;21.780;2022-10-16T07:58:27;17.07;58.66
63976;DHT22;50167;47.958;21.780;2022-10-16T08:00:54;16.86;60.08
63976;DHT22;50167;47.958;21.780;2022-10-16T08:03:20;16.71;60.12
63976;DHT22;50167;47.958;21.780;2022-10-16T08:05:46;16.61;61.03
63976;DHT22;50167;47.958;21.780;2022-10-16T08:08:14;16.53;61.04
63976;DHT22;50167;47.958;21.780;2022-10-16T08:10:41;16.50;61.37
63976;DHT22;50167;47.958;21.780;2022-10-16T08:13:07;16.43;62.69
63976;DHT22;50167;47.958;21.780;2022-10-16T08:15:34;17.39;63.11
63976;DHT22;50167;47.958;21.780;2022-10-16T08:18:04;19.04;59.61
63976;DHT22;50167;47.958;21.780;2022-10-16T08:20:33;19.45;54.78
63976;DHT22;50167;47.958;21.780;2022-10-16T08:23:02;18.90;55.08
63976;DHT22;50167;47.958;21.780;2022-10-16T08:25:29;18.49;55.93
63976;DHT22;50167;47.958;21.780;2022-10-16T08:27:55;18.25;55.23
63976;DHT22;50167;47.958;21.780;2022-10-16T08:30:23;18.02;57.85
63976;DHT22;50167;47.958;21.780;2022-10-16T08:32:50;17.93;58.36
63976;DHT22;50167;47.958;21.780;2022-10-16T08:35:16;17.83;58.43
63976;DHT22;50167;47.958;21.780;2022-10-16T08:37:43;17.74;59.38
63976;DHT22;50167;47.958;21.780;2022-10-16T08:40:20;17.66;59.50
63976;DHT22;50167;47.958;21.780;2022-10-16T08:48:54;17.76;60.25
63976;DHT22;50167;47.958;21.780;2022-10-16T08:51:35;17.84;59.62
63976;DHT22;50167;47.958;21.780;2022-10-16T08:54:06;18.07;58.12
63976;DHT22;50167;47.958;21.780;2022-10-16T08:56:32;18.45;57.87
63976;DHT22;50167;47.958;21.780;2022-10-16T08:58:59;19.04;57.02
63976;DHT22;50167;47.958;21.780;2022-10-16T09:01:40;19.80;54.76
63976;DHT22;50167;47.958;21.780;2022-10-16T09:10:15;23.26;45.29
63976;DHT22;50167;47.958;21.780;2022-10-16T09:21:40;27.55;35.69
63976;DHT22;50167;47.958;21.780;2022-10-16T09:24:21;28.33;35.18
63976;DHT22;50167;47.958;21.780;2022-10-16T09:26:48;28.98;33.41
63976;DHT22;50167;47.958;21.780;2022-10-16T09:29:15;29.48;31.73
63976;DHT22;50167;47.958;21.780;2022-10-16T09:31:42;30.01;31.72
63976;DHT22;50167;47.958;21.780;2022-10-16T09:34:24;30.47;31.49
63976;DHT22;50167;47.958;21.780;2022-10-16T09:36:44;31.01;30.26
63976;DHT22;50167;47.958;21.780;2022-10-16T09:39:12;31.47;29.02
63976;DHT22;50167;47.958;21.780;2022-10-16T09:41:42;31.79;31.50
63976;DHT22;50167;47.958;21.780;2022-10-16T09:44:30;31.93;28.53
63976;DHT22;50167;47.958;21.780;2022-10-16T09:47:13;31.93;27.96
63976;DHT22;50167;47.958;21.780;2022-10-16T09:49:57;32.01;28.37
63976;DHT22;50167;47.958;21.780;2022-10-16T09:52:25;32.07;28.66
63976;DHT22;50167;47.958;21.780;2022-10-16T10:08:27;36.14;23.07
63976;DHT22;50167;47.958;21.780;2022-10-16T10:10:53;35.59;23.11
63976;DHT22;50167;47.958;21.780;2022-10-16T10:13:22;35.14;23.66
63976;DHT22;50167;47.958;21.780;2022-10-16T10:15:50;34.95;23.94
63976;DHT22;50167;47.958;21.780;2022-10-16T10:18:19;34.94;23.39
63976;DHT22;50167;47.958;21.780;2022-10-16T10:21:00;34.93;24.39
63976;DHT22;50167;47.958;21.780;2022-10-16T10:23:30;34.93;24.22
63976;DHT22;50167;47.958;21.780;2022-10-16T10:31:33;34.98;24.34
63976;DHT22;50167;47.958;21.780;2022-10-16T10:42:49;31.28;27.56
63976;DHT22;50167;47.958;21.780;2022-10-16T10:48:16;30.46;30.52
63976;DHT22;50167;47.958;21.780;2022-10-16T10:50:52;30.85;28.26
63976;DHT22;50167;47.958;21.780;2022-10-16T10:56:26;31.98;27.48
63976;DHT22;50167;47.958;21.780;2022-10-16T11:02:03;32.28;26.33
63976;DHT22;50167;47.958;21.780;2022-10-16T11:07:36;31.30;27.39
63976;DHT22;50167;47.958;21.780;2022-10-16T11:10:13;30.67;28.95
63976;DHT22;50167;47.958;21.780;2022-10-16T11:12:42;30.11;29.51
63976;DHT22;50167;47.958;21.780;2022-10-16T11:20:25;28.38;32.58
63976;DHT22;50167;47.958;21.780;2022-10-16T11:58:03;30.26;28.85
63976;DHT22;50167;47.958;21.780;2022-10-16T12:00:40;30.57;29.35
63976;DHT22;50167;47.958;21.780;2022-10-16T12:06:34;30.44;28.37
63976;DHT22;50167;47.958;21.780;2022-10-16T12:09:02;30.84;27.87
63976;DHT22;50167;47.958;21.780;2022-10-16T12:11:34;30.70;28.64
63976;DHT22;50167;47.958;21.780;2022-10-16T12:14:18;30.49;28.64
63976;DHT22;50167;47.958;21.780;2022-10-16T12:16:58;30.52;28.47
63976;DHT22;50167;47.958;21.780;2022-10-16T12:19:30;30.54;28.88
63976;DHT22;50167;47.958;21.780;2022-10-16T12:22:00;30.73;29.16
63976;DHT22;50167;47.958;21.780;2022-10-16T12:24:42;30.39;29.38
63976;DHT22;50167;47.958;21.780;2022-10-16T12:27:30;29.63;29.82
63976;DHT22;50167;47.958;21.780;2022-10-16T12:30:03;28.96;30.87
63976;DHT22;50167;47.958;21.780;2022-10-16T12:32:37;29.23;31.29
63976;DHT22;50167;47.958;21.780;2022-10-16T12:35:17;30.06;29.74
63976;DHT22;50167;47.958;21.780;2022-10-16T12:37:40;30.67;28.55
63976;DHT22;50167;47.958;21.780;2022-10-16T12:42:53;30.08;29.16
63976;DHT22;50167;47.958;21.780;2022-10-16T12:45:33;29.88;29.93
63976;DHT22;50167;47.958;21.780;2022-10-16T12:48:04;29.79;29.96
63976;DHT22;50167;47.958;21.780;2022-10-16T12:50:39;29.60;30.89
63976;DHT22;50167;47.958;21.780;2022-10-16T12:53:25;29.56;29.81
63976;DHT22;50167;47.958;21.780;2022-10-16T12:59:08;30.67;28.43
63976;DHT22;50167;47.958;21.780;2022-10-16T13:04:51;31.79;27.48
63976;DHT22;50167;47.958;21.780;2022-10-16T13:16:08;33.74;25.50
63976;DHT22;50167;47.958;21.780;2022-10-16T13:21:56;33.34;25.09
63976;DHT22;50167;47.958;21.780;2022-10-16T13:28:10;32.24;26.49
63976;DHT22;50167;47.958;21.780;2022-10-16T13:30:39;31.59;27.25
63976;DHT22;50167;47.958;21.780;2022-10-16T13:35:56;29.94;29.28
63976;DHT22;50167;47.958;21.780;2022-10-16T13:38:26;29.27;29.76
63976;DHT22;50167;47.958;21.780;2022-10-16T13:43:45;27.89;31.39
63976;DHT22;50167;47.958;21.780;2022-10-16T13:46:17;26.90;33.25
63976;DHT22;50167;47.958;21.780;2022-10-16T13:48:44;26.24;34.51
63976;DHT22;50167;47.958;21.780;2022-10-16T13:51:17;25.63;35.58
63976;DHT22;50167;47.958;21.780;2022-10-16T13:53:45;25.07;35.81
63976;DHT22;50167;47.958;21.780;2022-10-16T13:56:19;24.54;36.74
63976;DHT22;50167;47.958;21.780;2022-10-16T13:58:45;24.16;38.03
63976;DHT22;50167;47.958;21.780;2022-10-16T14:01:23;23.89;37.90
63976;DHT22;50167;47.958;21.780;2022-10-16T14:03:51;23.56;38.52
63976;DHT22;50167;47.958;21.780;2022-10-16T14:06:21;23.32;39.50
63976;DHT22;50167;47.958;21.780;2022-10-16T14:08:58;23.07;40.00
63976;DHT22;50167;47.958;21.780;2022-10-16T14:11:22;22.86;41.31
63976;DHT22;50167;47.958;21.780;2022-10-16T14:13:52;22.65;41.87
63976;DHT22;50167;47.958;21.780;2022-10-16T14:16:27;22.50;42.45
63976;DHT22;50167;47.958;21.780;2022-10-16T14:19:02;22.54;42.58
63976;DHT22;50167;47.958;21.780;2022-10-16T14:21:29;22.85;42.64
63976;DHT22;50167;47.958;21.780;2022-10-16T14:23:56;22.89;43.15
63976;DHT22;50167;47.958;21.780;2022-10-16T14:26:26;22.81;42.63
63976;DHT22;50167;47.958;21.780;2022-10-16T14:29:14;22.70;42.66
63976;DHT22;50167;47.958;21.780;2022-10-16T14:31:41;22.52;41.81
63976;DHT22;50167;47.958;21.780;2022-10-16T14:34:34;22.43;41.98
63976;DHT22;50167;47.958;21.780;2022-10-16T14:37:19;22.58;42.15
63976;DHT22;50167;47.958;21.780;2022-10-16T14:39:42;23.18;41.86
63976;DHT22;50167;47.958;21.780;2022-10-16T14:42:20;23.94;40.41
63976;DHT22;50167;47.958;21.780;2022-10-16T14:44:55;24.81;39.63
63976;DHT22;50167;47.958;21.780;2022-10-16T14:47:25;25.52;37.76
63976;DHT22;50167;47.958;21.780;2022-10-16T14:49:53;26.05;36.72
63976;DHT22;50167;47.958;21.780;2022-10-16T14:52:24;26.14;36.64
63976;DHT22;50167;47.958;21.780;2022-10-16T14:54:51;25.83;37.10
63976;DHT22;50167;47.958;21.780;2022-10-16T14:57:26;25.55;37.63
63976;DHT22;50167;47.958;21.780;2022-10-16T14:59:52;25.56;37.72
63976;DHT22;50167;47.958;21.780;2022-10-16T15:02:31;25.49;37.60
63976;DHT22;50167;47.958;21.780;2022-10-16T15:04:58;25.02;38.44
63976;DHT22;50167;47.958;21.780;2022-10-16T15:07:25;24.44;39.71
63976;DHT22;50167;47.958;21.780;2022-10-16T15:09:51;23.87;40.21
63976;DHT22;50167;47.958;21.780;2022-10-16T15:12:18;23.29;41.19
63976;DHT22;50167;47.958;21.780;2022-10-16T15:14:44;22.72;42.27
63976;DHT22;50167;47.958;21.780;2022-10-16T15:17:11;22.21;43.81
63976;DHT22;50167;47.958;21.780;2022-10-16T15:19:37;21.76;44.89
63976;DHT22;50167;47.958;21.780;2022-10-16T15:22:04;21.33;45.50
63976;DHT22;50167;47.958;21.780;2022-10-16T15:24:30;20.93;46.78
63976;DHT22;50167;47.958;21.780;2022-10-16T15:26:56;20.55;47.42
63976;DHT22;50167;47.958;21.780;2022-10-16T15:29:22;20.21;48.57
63976;DHT22;50167;47.958;21.780;2022-10-16T15:31:48;19.91;49.99
63976;DHT22;50167;47.958;21.780;2022-10-16T15:34:14;19.60;50.93
63976;DHT22;50167;47.958;21.780;2022-10-16T15:36:40;19.29;51.62
63976;DHT22;50167;47.958;21.780;2022-10-16T15:39:16;19.05;52.42
63976;DHT22;50167;47.958;21.780;2022-10-16T15:41:44;18.77;53.24
63976;DHT22;50167;47.958;21.780;2022-10-16T15:44:11;18.55;53.78
63976;DHT22;50167;47.958;21.780;2022-10-16T15:46:37;18.31;54.36
63976;DHT22;50167;47.958;21.780;2022-10-16T15:49:03;18.11;55.21
63976;DHT22;50167;47.958;21.780;2022-10-16T15:51:30;17.90;56.08
63976;DHT22;50167;47.958;21.780;2022-10-16T15:53:59;17.73;56.74
63976;DHT22;50167;47.958;21.780;2022-10-16T15:56:27;17.54;57.71
63976;DHT22;50167;47.958;21.780;2022-10-16T15:58:55;17.33;57.93
63976;DHT22;50167;47.958;21.780;2022-10-16T16:01:21;17.12;58.66
63976;DHT22;50167;47.958;21.780;2022-10-16T16:03:47;16.90;59.67
63976;DHT22;50167;47.958;21.780;2022-10-16T16:06:15;16.71;60.72
63976;DHT22;50167;47.958;21.780;2022-10-16T16:08:42;16.56;61.31
63976;DHT22;50167;47.958;21.780;2022-10-16T16:11:14;16.39;62.11
63976;DHT22;50167;47.958;21.780;2022-10-16T16:13:39;16.19;59.82
63976;DHT22;50167;47.958;21.780;2022-10-16T16:16:09;16.01;62.54
63976;DHT22;50167;47.958;21.780;2022-10-16T16:18:36;16.77;66.04
63976;DHT22;50167;47.958;21.780;2022-10-16T16:21:03;18.22;63.55
63976;DHT22;50167;47.958;21.780;2022-10-16T16:23:31;19.09;60.04
63976;DHT22;50167;47.958;21.780;2022-10-16T16:28:40;18.12;57.26
63976;DHT22;50167;47.958;21.780;2022-10-16T16:31:07;17.50;58.84
63976;DHT22;50167;47.958;21.780;2022-10-16T16:33:33;16.95;60.11
63976;DHT22;50167;47.958;21.780;2022-10-16T16:36:03;16.61;61.28
63976;DHT22;50167;47.958;21.780;2022-10-16T16:38:30;16.29;62.26
63976;DHT22;50167;47.958;21.780;2022-10-16T16:40:57;16.97;65.13
63976;DHT22;50167;47.958;21.780;2022-10-16T16:43:26;18.22;62.74
63976;DHT22;50167;47.958;21.780;2022-10-16T16:45:54;19.08;59.65
63976;DHT22;50167;47.958;21.780;2022-10-16T16:48:21;19.00;56.46
63976;DHT22;50167;47.958;21.780;2022-10-16T16:50:47;18.08;57.28
63976;DHT22;50167;47.958;21.780;2022-10-16T16:53:13;17.30;58.96
63976;DHT22;50167;47.958;21.780;2022-10-16T16:55:39;16.77;60.33
63976;DHT22;50167;47.958;21.780;2022-10-16T16:58:05;16.28;61.36
63976;DHT22;50167;47.958;21.780;2022-10-16T17:01:15;15.84;62.77
63976;DHT22;50167;47.958;21.780;2022-10-16T17:03:45;16.87;66.15
63976;DHT22;50167;47.958;21.780;2022-10-16T17:06:13;17.98;62.76
63976;DHT22;50167;47.958;21.780;2022-10-16T17:09:06;18.70;60.42
63976;DHT22;50167;47.958;21.780;2022-10-16T17:11:54;19.29;58.23
63976;DHT22;50167;47.958;21.780;2022-10-16T17:14:20;19.00;55.61
63976;DHT22;50167;47.958;21.780;2022-10-16T17:16:46;18.00;56.58
63976;DHT22;50167;47.958;21.780;2022-10-16T17:19:17;17.22;58.42
63976;DHT22;50167;47.958;21.780;2022-10-16T17:21:56;16.61;59.95
63976;DHT22;50167;47.958;21.780;2022-10-16T17:24:40;16.05;61.45
63976;DHT22;50167;47.958;21.780;2022-10-16T17:27:06;15.63;62.99
63976;DHT22;50167;47.958;21.780;2022-10-16T17:29:32;16.37;66.23
63976;DHT22;50167;47.958;21.780;2022-10-16T17:31:58;17.64;63.08
63976;DHT22;50167;47.958;21.780;2022-10-16T17:34:24;18.36;60.10
63976;DHT22;50167;47.958;21.780;2022-10-16T17:36:51;18.18;57.59
63976;DHT22;50167;47.958;21.780;2022-10-16T17:39:18;17.18;58.85
63976;DHT22;50167;47.958;21.780;2022-10-16T17:41:46;16.36;60.60
63976;DHT22;50167;47.958;21.780;2022-10-16T17:44:57;15.68;62.29
63976;DHT22;50167;47.958;21.780;2022-10-16T17:47:23;16.51;65.61
63976;DHT22;50167;47.958;21.780;2022-10-16T17:49:49;17.56;63.10
63976;DHT22;50167;47.958;21.780;2022-10-16T17:52:16;18.21;60.42
63976;DHT22;50167;47.958;21.780;2022-10-16T17:54:42;18.67;57.86
63976;DHT22;50167;47.958;21.780;2022-10-16T18:02:38;16.29;59.51
63976;DHT22;50167;47.958;21.780;2022-10-16T18:05:07;15.70;61.18
63976;DHT22;50167;47.958;21.780;2022-10-16T18:07:34;15.19;62.69